createdAt,value
2022-10-05T00:00:26.937Z,17.88
2022-10-05T00:02:55.142Z,14.43
2022-10-05T00:05:32.173Z,21.60
2022-10-05T00:08:24.236Z,14.43
2022-10-05T00:10:51.857Z,13.63
2022-10-05T00:13:25.220Z,16.23
2022-10-05T00:18:26.910Z,17.35
2022-10-05T00:20:54.141Z,21.73
2022-10-05T00:23:31.930Z,15.18
2022-10-05T00:26:16.159Z,15.85
2022-10-05T00:28:43.534Z,18.23
2022-10-05T00:31:19.914Z,16.42
2022-10-05T00:33:48.037Z,14.48
2022-10-05T00:36:15.005Z,16.83
2022-10-05T00:38:43.478Z,16.95
2022-10-05T00:41:20.538Z,16.20
2022-10-05T00:44:25.026Z,15.68
2022-10-05T00:47:11.306Z,20.10
2022-10-05T00:50:28.210Z,18.23
2022-10-05T00:53:25.294Z,18.48
2022-10-05T00:56:17.902Z,16.70
2022-10-05T00:59:25.401Z,15.63
2022-10-05T01:02:12.744Z,17.50
2022-10-05T01:04:51.691Z,16.77
2022-10-05T01:07:50.407Z,15.73
2022-10-05T01:10:45.952Z,16.55
2022-10-05T01:13:28.568Z,15.75
2022-10-05T01:16:20.993Z,24.02
2022-10-05T01:19:09.057Z,21.25
2022-10-05T01:21:47.564Z,23.90
2022-10-05T01:24:21.021Z,16.92
2022-10-05T01:27:29.032Z,17.83
2022-10-05T01:30:14.768Z,18.30
2022-10-05T01:33:05.868Z,22.80
2022-10-05T01:35:49.636Z,23.15
2022-10-05T01:38:28.385Z,26.52
2022-10-05T01:41:03.157Z,21.10
2022-10-05T01:43:49.609Z,20.33
2022-10-05T01:46:35.869Z,20.88
2022-10-05T01:49:41.217Z,16.88
2022-10-05T01:52:26.437Z,21.60
2022-10-05T01:55:11.814Z,19.90
2022-10-05T01:57:45.938Z,20.73
2022-10-05T02:00:16.577Z,24.30
2022-10-05T02:02:50.865Z,23.67
2022-10-05T02:05:40.934Z,22.88
2022-10-05T02:08:16.666Z,19.23
2022-10-05T02:10:55.710Z,22.42
2022-10-05T02:14:11.902Z,23.33
2022-10-05T02:16:46.219Z,26.52
2022-10-05T02:19:35.990Z,22.27
2022-10-05T02:22:36.547Z,23.27
2022-10-05T02:25:14.063Z,24.42
2022-10-05T02:27:55.341Z,23.83
2022-10-05T02:30:22.361Z,30.88
2022-10-05T02:33:02.851Z,21.83
2022-10-05T02:35:29.607Z,24.85
2022-10-05T02:38:01.511Z,19.95
2022-10-05T02:40:51.399Z,32.92
2022-10-05T02:43:42.945Z,21.83
2022-10-05T02:46:36.529Z,21.80
2022-10-05T02:49:20.408Z,18.35
2022-10-05T02:52:04.036Z,18.55
2022-10-05T02:54:55.060Z,23.23
2022-10-05T02:57:32.136Z,25.83
2022-10-05T03:00:09.673Z,21.73
2022-10-05T03:02:39.828Z,19.92
2022-10-05T03:05:33.816Z,21.02
2022-10-05T03:08:18.388Z,22.50
2022-10-05T03:11:34.768Z,18.95
2022-10-05T03:14:12.916Z,18.17
2022-10-05T03:16:45.802Z,16.75
2022-10-05T03:19:44.145Z,18.45
2022-10-05T03:22:40.671Z,15.13
2022-10-05T03:25:30.621Z,16.58
2022-10-05T03:28:04.157Z,19.33
2022-10-05T03:30:41.901Z,18.75
2022-10-05T03:33:23.054Z,18.83
2022-10-05T03:35:57.590Z,18.55
2022-10-05T03:38:31.862Z,20.10
2022-10-05T03:41:32.330Z,17.67
2022-10-05T03:43:59.614Z,16.20
2022-10-05T03:47:01.959Z,15.00
2022-10-05T03:49:58.250Z,16.60
2022-10-05T03:53:05.063Z,18.30
2022-10-05T03:56:05.238Z,15.68
2022-10-05T03:58:57.586Z,15.05
2022-10-05T04:01:43.052Z,17.42
2022-10-05T04:04:18.995Z,16.55
2022-10-05T04:06:49.542Z,16.60
2022-10-05T04:09:26.568Z,18.42
2022-10-05T04:12:18.939Z,19.15
2022-10-05T04:15:03.191Z,17.70
2022-10-05T04:17:42.494Z,20.05
2022-10-05T04:20:24.668Z,18.58
2022-10-05T04:23:14.956Z,23.75
2022-10-05T04:25:53.724Z,18.33
2022-10-05T04:28:38.223Z,19.65
2022-10-05T04:33:33.660Z,22.10
2022-10-05T04:36:24.548Z,19.70
2022-10-05T04:39:17.057Z,22.17
2022-10-05T04:41:56.110Z,26.65
2022-10-05T04:44:37.078Z,18.95
2022-10-05T04:47:33.353Z,22.35
2022-10-05T04:50:23.866Z,20.42
2022-10-05T04:53:18.857Z,23.58
2022-10-05T04:56:19.853Z,20.77
2022-10-05T04:58:53.505Z,24.50
2022-10-05T05:04:06.934Z,24.50
2022-10-05T05:06:44.089Z,20.75
2022-10-05T05:09:40.526Z,18.73
2022-10-05T05:12:19.439Z,23.75
2022-10-05T05:15:12.359Z,22.88
2022-10-05T05:18:12.991Z,19.80
2022-10-05T05:20:51.691Z,15.95
2022-10-05T05:23:40.094Z,20.83
2022-10-05T05:26:17.127Z,22.02
2022-10-05T05:29:09.005Z,22.88
2022-10-05T05:31:49.663Z,16.83
2022-10-05T05:34:55.020Z,26.55
2022-10-05T05:37:41.307Z,23.15
2022-10-05T05:40:31.941Z,22.30
2022-10-05T05:43:26.486Z,25.25
2022-10-05T05:46:03.324Z,24.27
2022-10-05T05:48:47.425Z,23.08
2022-10-05T05:51:27.601Z,26.65
2022-10-05T05:54:20.725Z,22.02
2022-10-05T05:57:00.280Z,22.20
2022-10-05T05:59:51.902Z,18.08
2022-10-05T06:02:25.011Z,19.85
2022-10-05T06:05:03.349Z,19.13
2022-10-05T06:07:31.751Z,21.55
2022-10-05T06:10:04.459Z,25.10
2022-10-05T06:12:50.481Z,20.27
2022-10-05T06:15:40.181Z,19.85
2022-10-05T06:18:13.782Z,26.00
2022-10-05T06:20:51.954Z,20.70
2022-10-05T06:23:35.269Z,21.00
2022-10-05T06:26:20.112Z,26.73
2022-10-05T06:29:05.806Z,19.55
2022-10-05T06:32:01.668Z,18.67
2022-10-05T06:34:58.328Z,19.48
2022-10-05T06:37:46.180Z,20.38
2022-10-05T06:40:41.714Z,21.73
2022-10-05T06:43:47.151Z,24.90
2022-10-05T06:46:56.392Z,25.80
2022-10-05T06:50:15.816Z,17.33
2022-10-05T06:53:20.186Z,15.57
2022-10-05T06:56:08.735Z,17.92
2022-10-05T06:58:57.264Z,20.67
2022-10-05T07:01:41.655Z,17.95
2022-10-05T07:04:24.473Z,14.65
2022-10-05T07:06:54.643Z,17.40
2022-10-05T07:09:22.471Z,21.55
2022-10-05T07:11:55.282Z,17.63
2022-10-05T07:14:46.679Z,19.50
2022-10-05T07:17:45.820Z,19.55
2022-10-05T07:20:32.076Z,18.17
2022-10-05T07:23:21.260Z,20.88
2022-10-05T07:26:06.774Z,22.70
2022-10-05T07:29:12.951Z,18.15
2022-10-05T07:31:52.913Z,20.88
2022-10-05T07:34:40.073Z,21.85
2022-10-05T07:37:41.129Z,20.17
2022-10-05T07:40:40.861Z,22.88
2022-10-05T07:44:00.984Z,14.45
2022-10-05T07:46:57.296Z,13.77
2022-10-05T07:49:32.453Z,16.60
2022-10-05T07:52:05.017Z,14.02
2022-10-05T07:54:47.716Z,16.35
2022-10-05T07:57:28.487Z,13.40
2022-10-05T08:00:05.254Z,19.80
2022-10-05T08:02:50.978Z,14.38
2022-10-05T08:05:37.431Z,15.30
2022-10-05T08:08:19.788Z,13.93
2022-10-05T08:11:06.192Z,14.80
2022-10-05T08:14:10.726Z,17.33
2022-10-05T08:16:38.517Z,13.73
2022-10-05T08:19:14.011Z,21.42
2022-10-05T08:21:55.884Z,13.48
2022-10-05T08:24:23.112Z,18.00
2022-10-05T08:27:21.997Z,17.80
2022-10-05T08:29:54.428Z,12.30
2022-10-05T08:32:50.240Z,15.53
2022-10-05T08:35:36.355Z,15.52
2022-10-05T08:38:09.454Z,15.95
2022-10-05T08:41:05.035Z,12.80
2022-10-05T08:43:35.176Z,14.68
2022-10-05T08:46:11.801Z,15.20
2022-10-05T08:49:04.749Z,20.27
2022-10-05T08:51:49.814Z,15.05
2022-10-05T08:54:43.763Z,13.73
2022-10-05T08:57:39.202Z,8.95
2022-10-05T09:00:15.928Z,13.50
2022-10-05T09:03:20.689Z,12.80
2022-10-05T09:06:18.305Z,9.45
2022-10-05T09:08:51.174Z,14.73
2022-10-05T09:11:25.521Z,12.90
2022-10-05T09:14:11.205Z,11.27
2022-10-05T09:17:00.157Z,14.20
2022-10-05T09:19:48.697Z,8.27
2022-10-05T09:22:16.633Z,15.20
2022-10-05T09:25:02.027Z,10.98
2022-10-05T09:27:39.106Z,11.05
2022-10-05T09:30:45.246Z,7.85
2022-10-05T09:33:33.773Z,8.77
2022-10-05T09:36:31.752Z,5.05
2022-10-05T09:39:16.810Z,5.32
2022-10-05T09:42:21.143Z,9.30
2022-10-05T09:45:25.430Z,7.38
2022-10-05T09:48:04.315Z,16.05
2022-10-05T09:50:43.211Z,7.15
2022-10-05T09:53:46.967Z,4.60
2022-10-05T09:59:36.988Z,4.25
2022-10-05T10:02:28.098Z,5.55
2022-10-05T10:05:16.791Z,10.85
2022-10-05T10:07:50.077Z,5.35
2022-10-05T10:10:44.813Z,4.70
2022-10-05T10:13:56.368Z,7.28
2022-10-05T10:16:36.273Z,5.88
2022-10-05T10:19:21.821Z,5.47
2022-10-05T10:22:00.885Z,2.90
2022-10-05T10:24:41.831Z,6.00
2022-10-05T10:27:51.620Z,3.55
2022-10-05T10:30:56.847Z,2.75
2022-10-05T10:33:44.359Z,7.10
2022-10-05T10:36:33.247Z,5.38
2022-10-05T10:39:21.910Z,5.57
2022-10-05T10:42:07.274Z,5.68
2022-10-05T10:44:52.997Z,5.40
2022-10-05T10:47:40.772Z,5.68
2022-10-05T10:50:39.971Z,5.72
2022-10-05T10:53:17.109Z,5.97
2022-10-05T10:56:18.084Z,3.72
2022-10-05T10:59:09.524Z,2.55
2022-10-05T11:02:15.181Z,2.78
2022-10-05T11:05:01.837Z,4.03
2022-10-05T11:08:17.003Z,3.38
2022-10-05T11:11:12.632Z,3.67
2022-10-05T11:14:16.798Z,3.42
2022-10-05T11:17:21.807Z,4.15
2022-10-05T11:20:19.904Z,4.30
2022-10-05T11:22:58.647Z,4.63
2022-10-05T11:25:53.377Z,3.67
2022-10-05T11:28:48.337Z,5.28
2022-10-05T11:31:54.738Z,5.55
2022-10-05T11:34:31.837Z,3.78
2022-10-05T11:37:40.193Z,3.58
2022-10-05T11:40:38.753Z,7.03
2022-10-05T11:43:37.820Z,8.32
2022-10-05T11:46:20.575Z,3.35
2022-10-05T11:49:00.361Z,3.40
2022-10-05T11:51:36.581Z,9.13
2022-10-05T11:54:23.721Z,6.05
2022-10-05T11:56:58.945Z,6.65
2022-10-05T11:59:43.457Z,5.43
2022-10-05T12:02:25.371Z,8.82
2022-10-05T12:05:03.515Z,6.67
2022-10-05T12:07:39.850Z,4.28
2022-10-05T12:10:32.950Z,5.40
2022-10-05T12:13:14.735Z,5.88
2022-10-05T12:16:06.892Z,5.95
2022-10-05T12:18:33.991Z,1.98
2022-10-05T12:21:15.318Z,5.15
2022-10-05T12:23:59.785Z,5.43
2022-10-05T12:26:49.257Z,1.67
2022-10-05T12:29:26.320Z,3.50
2022-10-05T12:32:04.402Z,3.42
2022-10-05T12:34:48.972Z,1.88
2022-10-05T12:37:40.595Z,2.80
2022-10-05T12:40:31.297Z,4.93
2022-10-05T12:43:11.188Z,3.95
2022-10-05T12:45:49.560Z,2.90
2022-10-05T12:48:25.055Z,5.88
2022-10-05T12:51:16.853Z,3.67
2022-10-05T12:53:57.389Z,5.82
2022-10-05T12:56:42.836Z,7.35
2022-10-05T12:59:24.626Z,3.97
2022-10-05T13:02:19.496Z,6.53
2022-10-05T13:05:22.035Z,2.97
2022-10-05T13:08:17.802Z,3.67
2022-10-05T13:11:12.741Z,5.55
2022-10-05T13:13:52.922Z,5.18
2022-10-05T13:16:54.792Z,3.20
2022-10-05T13:19:36.723Z,2.47
2022-10-05T13:22:34.118Z,2.05
2022-10-05T13:25:19.506Z,2.83
2022-10-05T13:28:08.609Z,5.10
2022-10-05T13:30:37.185Z,1.63
2022-10-05T13:33:22.982Z,3.08
2022-10-05T13:36:07.141Z,3.00
2022-10-05T13:38:48.846Z,2.78
2022-10-05T13:41:50.715Z,8.90
2022-10-05T13:44:17.263Z,4.00
2022-10-05T13:47:13.784Z,9.50
2022-10-05T13:49:58.425Z,2.13
2022-10-05T13:52:45.548Z,8.63
2022-10-05T13:55:37.094Z,7.13
2022-10-05T13:58:23.552Z,4.20
2022-10-05T14:00:55.036Z,3.47
2022-10-05T14:03:33.104Z,4.55
2022-10-05T14:06:03.824Z,6.20
2022-10-05T14:08:46.093Z,6.45
2022-10-05T14:11:31.473Z,8.48
2022-10-05T14:14:10.541Z,4.85
2022-10-05T14:16:53.589Z,6.43
2022-10-05T14:19:27.778Z,2.03
2022-10-05T14:22:11.521Z,4.45
2022-10-05T14:25:02.569Z,1.63
2022-10-05T14:27:50.117Z,6.78
2022-10-05T14:30:23.987Z,3.15
2022-10-05T14:32:52.578Z,3.85
2022-10-05T14:35:25.567Z,5.28
2022-10-05T14:38:09.475Z,4.85
2022-10-05T14:40:38.396Z,7.93
2022-10-05T14:43:13.962Z,8.48
2022-10-05T14:46:02.868Z,6.20
2022-10-05T14:48:41.010Z,6.20
2022-10-05T14:51:24.375Z,5.40
2022-10-05T14:56:49.692Z,15.23
2022-10-05T14:59:41.143Z,5.63
2022-10-05T15:02:36.619Z,5.72
2022-10-05T15:05:48.095Z,4.68
2022-10-05T15:08:45.070Z,8.10
2022-10-05T15:11:31.573Z,6.22
2022-10-05T15:13:58.661Z,8.13
2022-10-05T15:16:34.458Z,5.10
2022-10-05T15:19:22.444Z,17.77
2022-10-05T15:22:18.899Z,6.22
2022-10-05T15:25:14.066Z,6.95
2022-10-05T15:28:07.820Z,7.68
2022-10-05T15:30:40.206Z,3.55
2022-10-05T15:33:27.792Z,4.88
2022-10-05T15:36:08.358Z,6.50
2022-10-05T15:39:03.557Z,8.30
2022-10-05T15:41:53.145Z,7.07
2022-10-05T15:44:29.021Z,8.35
2022-10-05T15:47:03.625Z,7.22
2022-10-05T15:49:45.845Z,9.32
2022-10-05T15:52:44.070Z,5.40
2022-10-05T15:55:35.379Z,6.15
2022-10-05T15:58:31.237Z,6.22
2022-10-05T16:01:13.439Z,6.82
2022-10-05T16:03:51.107Z,4.85
2022-10-05T16:07:05.526Z,9.13
2022-10-05T16:09:46.879Z,4.50
2022-10-05T16:12:25.570Z,10.70
2022-10-05T16:15:19.010Z,6.50
2022-10-05T16:17:51.749Z,7.20
2022-10-05T16:20:22.054Z,7.85
2022-10-05T16:23:21.238Z,3.65
2022-10-05T16:26:21.324Z,7.10
2022-10-05T16:29:23.804Z,8.00
2022-10-05T16:32:06.346Z,7.72
2022-10-05T16:34:49.204Z,5.90
2022-10-05T16:37:38.616Z,9.50
2022-10-05T16:40:19.430Z,8.23
2022-10-05T16:43:10.824Z,6.93
2022-10-05T16:45:52.262Z,17.35
2022-10-05T16:48:27.019Z,7.07
2022-10-05T16:50:56.979Z,4.70
2022-10-05T16:53:37.025Z,15.18
2022-10-05T16:56:10.966Z,3.55
2022-10-05T16:59:11.773Z,8.95
2022-10-05T17:01:45.691Z,11.45
2022-10-05T17:04:13.135Z,7.47
2022-10-05T17:06:54.249Z,3.25
2022-10-05T17:09:52.287Z,4.60
2022-10-05T17:12:37.857Z,6.95
2022-10-05T17:15:29.302Z,9.93
2022-10-05T17:18:16.430Z,5.13
2022-10-05T17:20:51.151Z,4.28
2022-10-05T17:23:30.110Z,4.78
2022-10-05T17:26:08.330Z,7.68
2022-10-05T17:28:59.733Z,5.00
2022-10-05T17:31:31.255Z,6.45
2022-10-05T17:34:26.349Z,6.18
2022-10-05T17:36:58.610Z,5.18
2022-10-05T17:39:52.032Z,6.03
2022-10-05T17:45:14.918Z,6.85
2022-10-05T17:48:09.874Z,4.43
2022-10-05T17:50:58.937Z,4.40
2022-10-05T17:54:05.752Z,4.47
2022-10-05T17:56:47.456Z,6.45
2022-10-05T17:59:38.792Z,10.13
2022-10-05T18:02:23.239Z,5.43
2022-10-05T18:05:01.490Z,8.05
2022-10-05T18:07:28.964Z,4.72
2022-10-05T18:10:17.108Z,9.18
2022-10-05T18:13:11.354Z,6.32
2022-10-05T18:15:45.269Z,7.03
2022-10-05T18:18:48.465Z,4.88
2022-10-05T18:23:51.481Z,4.78
2022-10-05T18:26:47.532Z,5.43
2022-10-05T18:29:53.818Z,6.22
2022-10-05T18:32:46.529Z,8.60
2022-10-05T18:35:46.768Z,5.30
2022-10-05T18:38:43.638Z,7.30
2022-10-05T18:41:31.801Z,4.72
2022-10-05T18:44:11.949Z,4.72
2022-10-05T18:47:02.526Z,10.02
2022-10-05T18:49:56.978Z,5.60
2022-10-05T18:53:14.798Z,8.73
2022-10-05T18:55:53.775Z,7.03
2022-10-05T18:58:31.758Z,5.28
2022-10-05T19:01:17.794Z,9.00
2022-10-05T19:04:22.111Z,7.95
2022-10-05T19:07:18.846Z,7.05
2022-10-05T19:10:02.977Z,5.63
2022-10-05T19:12:32.999Z,6.55
2022-10-05T19:15:13.394Z,5.63
2022-10-05T19:17:43.667Z,6.80
2022-10-05T19:20:19.578Z,8.30
2022-10-05T19:23:19.371Z,5.43
2022-10-05T19:25:55.219Z,7.68
2022-10-05T19:28:33.651Z,8.13
2022-10-05T19:31:12.649Z,4.95
2022-10-05T19:34:00.204Z,5.70
2022-10-05T19:36:32.233Z,9.10
2022-10-05T19:39:10.772Z,5.78
2022-10-05T19:41:59.461Z,8.57
2022-10-05T19:44:38.350Z,5.85
2022-10-05T19:47:24.193Z,8.38
2022-10-05T19:49:55.190Z,3.67
2022-10-05T19:52:25.262Z,5.03
2022-10-05T19:55:15.246Z,7.32
2022-10-05T19:57:58.021Z,4.50
2022-10-05T20:00:35.378Z,6.78
2022-10-05T20:03:27.785Z,5.03
2022-10-05T20:05:59.470Z,8.85
2022-10-05T20:08:36.341Z,7.97
2022-10-05T20:11:21.918Z,6.25
2022-10-05T20:13:58.317Z,10.40
2022-10-05T20:19:49.545Z,6.95
2022-10-05T20:22:37.931Z,5.18
2022-10-05T20:25:24.841Z,12.10
2022-10-05T20:27:55.327Z,6.63
2022-10-05T20:30:27.390Z,8.60
2022-10-05T20:33:04.450Z,7.03
2022-10-05T20:35:31.079Z,5.50
2022-10-05T20:38:01.690Z,8.77
2022-10-05T20:40:29.934Z,8.75
2022-10-05T20:42:58.170Z,11.55
2022-10-05T20:45:25.014Z,4.15
2022-10-05T20:47:52.251Z,8.00
2022-10-05T20:50:20.370Z,13.93
2022-10-05T20:52:47.134Z,7.50
2022-10-05T20:55:13.839Z,7.65
2022-10-05T20:57:43.216Z,8.52
2022-10-05T21:00:11.782Z,10.80
2022-10-05T21:02:39.318Z,5.15
2022-10-05T21:05:06.343Z,12.10
2022-10-05T21:07:34.427Z,6.03
2022-10-05T21:10:03.546Z,7.95
2022-10-05T21:12:30.621Z,8.20
2022-10-05T21:14:59.091Z,7.18
2022-10-05T21:17:26.054Z,10.40
2022-10-05T21:19:52.693Z,8.57
2022-10-05T21:22:19.331Z,6.53
2022-10-05T21:24:46.046Z,14.48
2022-10-05T21:27:13.343Z,11.93
2022-10-05T21:29:41.166Z,9.63
2022-10-05T21:32:11.860Z,4.78
2022-10-05T21:34:39.403Z,4.82
2022-10-05T21:37:07.033Z,6.32
2022-10-05T21:39:34.952Z,8.07
2022-10-05T21:42:02.273Z,7.93
2022-10-05T21:44:28.872Z,6.65
2022-10-05T21:46:56.798Z,6.75
2022-10-05T21:49:24.841Z,4.45
2022-10-05T21:51:52.137Z,4.57
2022-10-05T21:54:21.046Z,4.80
2022-10-05T21:56:51.664Z,3.88
2022-10-05T21:59:21.260Z,6.15
2022-10-05T22:01:48.544Z,4.85
2022-10-05T22:04:15.238Z,3.47
2022-10-05T22:06:42.511Z,4.35
2022-10-05T22:09:09.389Z,7.53
2022-10-05T22:11:36.839Z,4.07
2022-10-05T22:14:03.882Z,9.20
2022-10-05T22:16:34.543Z,5.13
2022-10-05T22:19:06.784Z,6.53
2022-10-05T22:21:38.345Z,6.22
2022-10-05T22:24:05.330Z,7.43
2022-10-05T22:26:33.341Z,6.03
2022-10-05T22:29:01.588Z,7.72
2022-10-05T22:31:28.947Z,7.20
2022-10-05T22:33:55.682Z,6.47
2022-10-05T22:36:23.170Z,6.57
2022-10-05T22:38:49.792Z,10.15
2022-10-05T22:41:18.575Z,10.52
2022-10-05T22:43:48.556Z,8.13
2022-10-05T22:46:16.423Z,11.07
2022-10-05T22:48:43.243Z,5.10
2022-10-05T22:51:10.623Z,3.28
2022-10-05T22:53:37.703Z,5.10
2022-10-05T22:56:12.573Z,3.78
2022-10-05T22:58:40.839Z,1.85
2022-10-05T23:01:11.327Z,5.47
2022-10-05T23:03:38.031Z,4.47
2022-10-05T23:06:14.651Z,4.40
2022-10-05T23:08:42.531Z,4.32
2022-10-05T23:11:18.283Z,3.63
2022-10-05T23:13:45.093Z,1.88
2022-10-05T23:16:15.380Z,7.85
2022-10-05T23:18:42.520Z,12.25
2022-10-05T23:21:10.733Z,6.20
2022-10-05T23:23:41.855Z,2.60
2022-10-05T23:26:11.333Z,3.13
2022-10-05T23:28:40.317Z,4.63
2022-10-05T23:31:08.742Z,7.40
2022-10-05T23:33:35.620Z,8.52
2022-10-05T23:36:18.523Z,8.07
2022-10-05T23:38:45.242Z,4.88
2022-10-05T23:41:13.664Z,5.18
2022-10-05T23:43:40.384Z,6.30
2022-10-05T23:46:08.994Z,8.77
2022-10-05T23:48:39.054Z,4.80
2022-10-05T23:51:08.249Z,12.07
2022-10-05T23:53:34.944Z,6.63
2022-10-05T23:56:02.421Z,5.65
2022-10-05T23:58:29.864Z,6.97
